createdAt,value
2023-05-21T00:01:43.043Z,14.90
2023-05-21T00:04:17.181Z,19.92
2023-05-21T00:06:50.622Z,18.27
2023-05-21T00:09:23.883Z,12.77
2023-05-21T00:11:54.670Z,13.10
2023-05-21T00:14:26.088Z,14.38
2023-05-21T00:16:58.121Z,14.27
2023-05-21T00:19:29.557Z,15.63
2023-05-21T00:22:03.769Z,15.25
2023-05-21T00:24:35.648Z,14.63
2023-05-21T00:27:07.215Z,16.05
2023-05-21T00:29:38.080Z,16.88
2023-05-21T00:32:09.512Z,19.02
2023-05-21T00:34:40.136Z,16.35
2023-05-21T00:37:18.168Z,11.40
2023-05-21T00:39:49.605Z,15.65
2023-05-21T00:42:24.395Z,14.32
2023-05-21T00:44:57.213Z,15.57
2023-05-21T00:47:31.692Z,10.55
2023-05-21T00:50:06.321Z,13.00
2023-05-21T00:52:43.136Z,15.82
2023-05-21T00:55:15.389Z,11.23
2023-05-21T00:57:48.628Z,16.88
2023-05-21T01:00:20.801Z,15.65
2023-05-21T01:02:52.943Z,13.23
2023-05-21T01:05:26.702Z,13.57
2023-05-21T01:08:00.814Z,14.20
2023-05-21T01:10:34.253Z,18.77
2023-05-21T01:13:08.537Z,12.40
2023-05-21T01:15:42.783Z,15.00
2023-05-21T01:18:22.207Z,17.85
2023-05-21T01:20:55.842Z,16.02
2023-05-21T01:23:27.700Z,15.18
2023-05-21T01:25:58.089Z,15.57
2023-05-21T01:28:35.607Z,12.57
2023-05-21T01:31:36.766Z,14.82
2023-05-21T01:34:10.536Z,14.20
2023-05-21T01:36:50.948Z,13.15
2023-05-21T01:42:27.716Z,13.85
2023-05-21T01:45:04.660Z,14.50
2023-05-21T01:47:39.548Z,14.18
2023-05-21T01:50:11.868Z,14.15
2023-05-21T01:52:55.255Z,15.48
2023-05-21T01:55:29.850Z,17.40
2023-05-21T01:58:04.008Z,14.93
2023-05-21T02:00:36.664Z,15.25
2023-05-21T02:03:08.520Z,16.40
2023-05-21T02:05:40.477Z,16.60
2023-05-21T02:08:12.386Z,13.68
2023-05-21T02:10:46.202Z,17.42
2023-05-21T02:13:17.317Z,14.93
2023-05-21T02:15:49.983Z,21.08
2023-05-21T02:18:23.542Z,14.00
2023-05-21T02:20:54.805Z,19.13
2023-05-21T02:23:27.905Z,12.65
2023-05-21T02:25:59.105Z,13.43
2023-05-21T02:28:31.291Z,12.63
2023-05-21T02:31:03.644Z,12.68
2023-05-21T02:33:35.216Z,13.02
2023-05-21T02:36:06.878Z,12.93
2023-05-21T02:38:40.549Z,12.20
2023-05-21T02:41:12.553Z,12.40
2023-05-21T02:43:43.861Z,10.95
2023-05-21T02:46:17.921Z,13.82
2023-05-21T02:48:48.677Z,11.82
2023-05-21T02:51:19.983Z,11.07
2023-05-21T02:53:51.323Z,11.43
2023-05-21T02:56:23.394Z,12.25
2023-05-21T02:58:55.140Z,12.85
2023-05-21T03:01:25.687Z,11.82
2023-05-21T03:03:56.858Z,13.75
2023-05-21T03:06:27.678Z,12.25
2023-05-21T03:09:01.136Z,11.23
2023-05-21T03:11:32.905Z,13.73
2023-05-21T03:14:03.557Z,15.73
2023-05-21T03:16:37.279Z,11.93
2023-05-21T03:19:08.910Z,11.75
2023-05-21T03:21:40.514Z,11.85
2023-05-21T03:24:11.668Z,15.38
2023-05-21T03:26:41.867Z,13.57
2023-05-21T03:29:13.455Z,11.05
2023-05-21T03:31:45.424Z,13.25
2023-05-21T03:34:18.782Z,13.05
2023-05-21T03:36:51.106Z,13.25
2023-05-21T03:39:23.624Z,11.88
2023-05-21T03:41:55.699Z,14.32
2023-05-21T03:44:36.182Z,15.75
2023-05-21T03:47:43.190Z,14.57
2023-05-21T03:50:15.313Z,10.63
2023-05-21T03:52:46.584Z,14.20
2023-05-21T03:55:18.110Z,11.93
2023-05-21T03:57:48.646Z,12.88
2023-05-21T04:00:19.037Z,11.60
2023-05-21T04:02:52.954Z,13.95
2023-05-21T04:05:24.188Z,9.90
2023-05-21T04:07:56.482Z,14.75
2023-05-21T04:10:27.722Z,10.63
2023-05-21T04:13:03.648Z,12.23
2023-05-21T04:15:36.687Z,10.15
2023-05-21T04:18:09.508Z,9.75
2023-05-21T04:20:40.461Z,10.15
2023-05-21T04:23:21.667Z,8.13
2023-05-21T04:25:56.012Z,11.52
2023-05-21T04:28:31.458Z,9.15
2023-05-21T04:33:33.650Z,9.98
2023-05-21T04:36:06.740Z,8.50
2023-05-21T04:38:39.110Z,11.52
2023-05-21T04:41:13.475Z,9.75
2023-05-21T04:43:46.085Z,9.05
2023-05-21T04:46:18.742Z,10.68
2023-05-21T04:48:49.220Z,12.88
2023-05-21T04:51:20.548Z,9.55
2023-05-21T04:53:52.192Z,8.57
2023-05-21T04:56:28.592Z,12.30
2023-05-21T04:59:01.634Z,9.90
2023-05-21T05:01:33.799Z,11.38
2023-05-21T05:04:05.331Z,11.23
2023-05-21T05:06:36.765Z,10.88
2023-05-21T05:09:08.779Z,9.23
2023-05-21T05:11:40.196Z,10.02
2023-05-21T05:14:11.873Z,9.75
2023-05-21T05:16:42.782Z,9.27
2023-05-21T05:19:13.301Z,10.70
2023-05-21T05:21:44.062Z,12.18
2023-05-21T05:24:15.472Z,9.75
2023-05-21T05:26:47.735Z,12.38
2023-05-21T05:29:19.820Z,9.02
2023-05-21T05:31:52.674Z,9.60
2023-05-21T05:34:26.554Z,12.00
2023-05-21T05:36:58.744Z,10.27
2023-05-21T05:39:29.228Z,10.27
2023-05-21T05:42:02.374Z,9.82
2023-05-21T05:44:34.349Z,7.72
2023-05-21T05:47:11.276Z,11.27
2023-05-21T05:49:43.864Z,9.27
2023-05-21T05:52:15.424Z,9.23
2023-05-21T05:54:46.432Z,10.68
2023-05-21T05:57:17.098Z,12.65
2023-05-21T05:59:51.053Z,10.65
2023-05-21T06:02:22.376Z,8.50
2023-05-21T06:04:53.392Z,10.18
2023-05-21T06:07:24.250Z,11.25
2023-05-21T06:09:55.471Z,10.75
2023-05-21T06:12:27.755Z,8.98
2023-05-21T06:14:59.557Z,9.43
2023-05-21T06:17:31.227Z,10.73
2023-05-21T06:20:02.828Z,11.30
2023-05-21T06:22:34.402Z,12.02
2023-05-21T06:25:07.699Z,10.38
2023-05-21T06:27:39.553Z,9.13
2023-05-21T06:30:16.544Z,12.40
2023-05-21T06:32:47.288Z,9.27
2023-05-21T06:35:18.249Z,14.82
2023-05-21T06:37:50.130Z,9.57
2023-05-21T06:40:21.084Z,10.30
2023-05-21T06:42:53.454Z,11.80
2023-05-21T06:45:40.478Z,10.73
2023-05-21T06:48:31.136Z,11.70
2023-05-21T06:51:02.884Z,12.38
2023-05-21T06:53:33.544Z,11.45
2023-05-21T06:56:04.516Z,12.63
2023-05-21T06:58:46.780Z,14.40
2023-05-21T07:01:19.210Z,11.60
2023-05-21T07:03:49.943Z,12.00
2023-05-21T07:06:21.961Z,13.13
2023-05-21T07:08:53.948Z,10.77
2023-05-21T07:11:27.291Z,14.18
2023-05-21T07:14:03.145Z,12.52
2023-05-21T07:16:36.611Z,12.18
2023-05-21T07:19:08.278Z,17.55
2023-05-21T07:21:40.226Z,11.25
2023-05-21T07:24:11.571Z,12.38
2023-05-21T07:26:44.905Z,11.55
2023-05-21T07:29:16.604Z,10.98
2023-05-21T07:31:48.421Z,9.98
2023-05-21T07:34:19.741Z,13.13
2023-05-21T07:36:50.890Z,12.07
2023-05-21T07:39:22.768Z,9.68
2023-05-21T07:41:54.978Z,10.57
2023-05-21T07:44:28.932Z,9.77
2023-05-21T07:47:01.210Z,13.38
2023-05-21T07:49:32.733Z,10.90
2023-05-21T07:52:04.710Z,11.13
2023-05-21T07:54:36.260Z,11.05
2023-05-21T07:57:07.859Z,11.70
2023-05-21T08:00:00.685Z,10.32
2023-05-21T08:02:34.731Z,10.82
2023-05-21T08:05:06.501Z,12.30
2023-05-21T08:07:37.693Z,11.30
2023-05-21T08:10:09.728Z,11.10
2023-05-21T08:12:43.157Z,10.02
2023-05-21T08:15:15.044Z,12.65
2023-05-21T08:17:48.135Z,11.35
2023-05-21T08:20:19.581Z,11.88
2023-05-21T08:22:52.035Z,8.55
2023-05-21T08:25:23.813Z,13.60
2023-05-21T08:27:55.458Z,11.93
2023-05-21T08:30:26.791Z,13.27
2023-05-21T08:32:57.863Z,12.68
2023-05-21T08:35:30.478Z,11.90
2023-05-21T08:38:08.488Z,8.00
2023-05-21T08:40:51.335Z,9.57
2023-05-21T08:43:23.552Z,12.25
2023-05-21T08:46:02.031Z,10.52
2023-05-21T08:48:36.419Z,12.02
2023-05-21T08:51:07.290Z,9.68
2023-05-21T08:53:47.914Z,9.32
2023-05-21T08:56:20.715Z,10.57
2023-05-21T08:59:02.754Z,11.10
2023-05-21T09:01:40.483Z,10.80
2023-05-21T09:04:31.419Z,8.93
2023-05-21T09:07:05.147Z,11.77
2023-05-21T09:10:12.094Z,12.00
2023-05-21T09:12:44.621Z,10.32
2023-05-21T09:15:15.895Z,12.73
2023-05-21T09:17:50.408Z,11.05
2023-05-21T09:20:41.237Z,10.95
2023-05-21T09:23:20.391Z,8.85
2023-05-21T09:25:54.971Z,11.10
2023-05-21T09:28:31.881Z,9.73
2023-05-21T09:31:06.368Z,9.88
2023-05-21T09:33:38.064Z,10.45
2023-05-21T09:36:10.947Z,11.18
2023-05-21T09:38:42.340Z,11.15
2023-05-21T09:41:13.920Z,11.25
2023-05-21T09:43:48.934Z,9.55
2023-05-21T09:46:28.512Z,10.05
2023-05-21T09:48:59.021Z,11.15
2023-05-21T09:51:31.120Z,8.77
2023-05-21T09:54:02.305Z,13.38
2023-05-21T09:56:33.533Z,11.55
2023-05-21T09:59:09.733Z,10.98
2023-05-21T10:01:41.902Z,11.13
2023-05-21T10:04:13.756Z,10.85
2023-05-21T10:06:53.037Z,11.63
2023-05-21T10:09:28.481Z,13.35
2023-05-21T10:12:01.190Z,11.88
2023-05-21T10:14:35.595Z,12.23
2023-05-21T10:17:08.925Z,11.00
2023-05-21T10:19:41.991Z,11.00
2023-05-21T10:22:13.229Z,13.18
2023-05-21T10:24:46.414Z,9.68
2023-05-21T10:27:17.701Z,10.98
2023-05-21T10:29:49.673Z,10.23
2023-05-21T10:32:20.961Z,11.40
2023-05-21T10:35:01.341Z,12.73
2023-05-21T10:37:32.945Z,11.13
2023-05-21T10:40:05.323Z,10.93
2023-05-21T10:42:35.734Z,10.38
2023-05-21T10:45:10.945Z,17.27
2023-05-21T10:47:59.800Z,11.07
2023-05-21T10:50:47.756Z,11.73
2023-05-21T10:53:57.387Z,11.68
2023-05-21T10:56:49.829Z,10.15
2023-05-21T10:59:40.382Z,13.25
2023-05-21T11:02:22.966Z,10.10
2023-05-21T11:05:01.153Z,11.88
2023-05-21T11:08:04.232Z,9.63
2023-05-21T11:10:45.251Z,14.60
2023-05-21T11:13:19.267Z,10.98
2023-05-21T11:16:17.511Z,12.80
2023-05-21T11:18:48.720Z,11.60
2023-05-21T11:21:21.885Z,13.10
2023-05-21T11:23:59.358Z,12.98
2023-05-21T11:26:53.965Z,13.68
2023-05-21T11:29:35.775Z,13.63
2023-05-21T11:32:07.987Z,12.93
2023-05-21T11:34:48.231Z,11.65
2023-05-21T11:37:35.089Z,9.95
2023-05-21T11:40:27.412Z,11.40
2023-05-21T11:43:00.154Z,10.63
2023-05-21T11:45:34.010Z,11.18
2023-05-21T11:48:06.249Z,11.98
2023-05-21T11:50:37.965Z,12.65
2023-05-21T11:53:11.240Z,10.95
2023-05-21T11:55:46.044Z,13.55
2023-05-21T11:58:18.536Z,11.45
2023-05-21T12:00:56.065Z,13.48
2023-05-21T12:03:28.925Z,10.55
2023-05-21T12:06:08.547Z,11.32
2023-05-21T12:08:40.616Z,11.70
2023-05-21T12:11:12.293Z,10.30
2023-05-21T12:13:43.082Z,13.00
2023-05-21T12:16:14.266Z,11.90
2023-05-21T12:18:45.342Z,11.48
2023-05-21T12:21:19.197Z,11.73
2023-05-21T12:23:50.880Z,12.10
2023-05-21T12:26:21.464Z,10.10
2023-05-21T12:28:55.327Z,10.30
2023-05-21T12:31:27.078Z,11.43
2023-05-21T12:33:58.284Z,11.65
2023-05-21T12:36:30.909Z,11.68
2023-05-21T12:39:05.511Z,9.15
2023-05-21T12:41:37.557Z,9.73
2023-05-21T12:44:10.953Z,12.68
2023-05-21T12:46:41.915Z,9.52
2023-05-21T12:49:36.803Z,10.10
2023-05-21T12:52:26.242Z,11.23
2023-05-21T12:55:00.234Z,11.32
2023-05-21T12:57:41.356Z,10.70
2023-05-21T13:00:13.475Z,14.02
2023-05-21T13:02:47.968Z,11.65
2023-05-21T13:05:20.503Z,13.43
2023-05-21T13:07:54.499Z,13.48
2023-05-21T13:10:25.505Z,12.30
2023-05-21T13:12:56.910Z,14.05
2023-05-21T13:15:28.187Z,13.25
2023-05-21T13:18:01.817Z,13.70
2023-05-21T13:20:33.447Z,17.40
2023-05-21T13:23:07.156Z,17.58
2023-05-21T13:25:39.146Z,12.35
2023-05-21T13:28:12.703Z,15.93
2023-05-21T13:30:43.478Z,20.80
2023-05-21T13:33:14.431Z,12.65
2023-05-21T13:35:45.405Z,14.45
2023-05-21T13:38:16.705Z,17.58
2023-05-21T13:40:47.981Z,17.58
2023-05-21T13:43:19.196Z,17.20
2023-05-21T13:45:51.291Z,14.38
2023-05-21T13:48:21.498Z,21.38
2023-05-21T13:50:53.189Z,14.70
2023-05-21T13:53:25.409Z,18.13
2023-05-21T13:55:56.456Z,19.33
2023-05-21T13:58:27.977Z,14.18
2023-05-21T14:00:59.076Z,19.55
2023-05-21T14:03:30.537Z,16.70
2023-05-21T14:06:01.614Z,14.35
2023-05-21T14:08:33.888Z,18.10
2023-05-21T14:11:05.007Z,14.55
2023-05-21T14:13:36.323Z,15.00
2023-05-21T14:16:08.237Z,14.90
2023-05-21T14:18:38.867Z,14.38
2023-05-21T14:21:09.734Z,14.88
2023-05-21T14:23:40.658Z,20.27
2023-05-21T14:26:11.030Z,20.90
2023-05-21T14:28:45.770Z,19.38
2023-05-21T14:31:18.859Z,14.57
2023-05-21T14:33:49.447Z,14.93
2023-05-21T14:36:20.030Z,16.30
2023-05-21T14:38:50.481Z,19.38
2023-05-21T14:41:22.108Z,18.52
2023-05-21T14:43:53.251Z,18.52
2023-05-21T14:46:25.251Z,21.40
2023-05-21T14:48:57.003Z,23.55
2023-05-21T14:51:27.373Z,16.70
2023-05-21T14:53:59.377Z,14.20
2023-05-21T14:56:31.813Z,15.20
2023-05-21T14:59:02.758Z,16.90
2023-05-21T15:01:33.544Z,13.07
2023-05-21T15:04:05.612Z,15.88
2023-05-21T15:06:36.583Z,15.07
2023-05-21T15:09:07.402Z,15.00
2023-05-21T15:11:38.439Z,17.00
2023-05-21T15:14:10.012Z,14.07
2023-05-21T15:16:41.876Z,13.70
2023-05-21T15:19:14.490Z,21.63
2023-05-21T15:21:46.608Z,36.47
2023-05-21T15:24:17.630Z,23.45
2023-05-21T15:26:50.832Z,35.47
2023-05-21T15:29:22.862Z,43.88
2023-05-21T15:32:06.676Z,49.15
2023-05-21T15:34:39.117Z,44.10
2023-05-21T15:37:10.461Z,46.10
2023-05-21T15:39:42.055Z,54.47
2023-05-21T15:42:14.440Z,44.60
2023-05-21T15:44:47.735Z,46.97
2023-05-21T15:47:19.112Z,58.63
2023-05-21T15:50:01.742Z,58.17
2023-05-21T15:55:20.016Z,38.00
2023-05-21T15:57:52.811Z,42.60
2023-05-21T16:00:26.441Z,47.78
2023-05-21T16:02:56.983Z,41.42
2023-05-21T16:05:30.460Z,32.10
2023-05-21T16:08:01.634Z,37.70
2023-05-21T16:10:32.660Z,48.42
2023-05-21T16:13:04.534Z,30.35
2023-05-21T16:15:35.873Z,43.33
2023-05-21T16:18:07.722Z,41.13
2023-05-21T16:23:48.357Z,44.50
2023-05-21T16:26:19.799Z,39.58
2023-05-21T16:28:50.056Z,40.03
2023-05-21T16:31:21.492Z,41.97
2023-05-21T16:33:52.131Z,55.20
2023-05-21T16:36:25.966Z,44.13
2023-05-21T16:38:58.658Z,46.35
2023-05-21T16:41:29.252Z,41.33
2023-05-21T16:43:59.418Z,54.20
2023-05-21T16:46:29.598Z,39.78
2023-05-21T16:49:01.220Z,49.90
2023-05-21T16:51:33.277Z,48.33
2023-05-21T16:54:07.107Z,46.38
2023-05-21T16:56:37.579Z,54.35
2023-05-21T16:59:07.756Z,35.20
2023-05-21T17:01:42.590Z,36.22
2023-05-21T17:04:14.332Z,44.15
2023-05-21T17:06:45.450Z,38.15
2023-05-21T17:09:17.078Z,30.30
2023-05-21T17:11:56.005Z,30.92
2023-05-21T17:17:03.277Z,30.83
2023-05-21T17:19:34.516Z,32.45
2023-05-21T17:22:05.735Z,49.88
2023-05-21T17:24:37.088Z,42.78
2023-05-21T17:27:07.901Z,39.67
2023-05-21T17:29:39.837Z,35.63
2023-05-21T17:32:20.451Z,36.00
2023-05-21T17:37:29.155Z,31.35
2023-05-21T17:40:01.712Z,35.63
2023-05-21T17:42:56.578Z,35.22
2023-05-21T17:45:29.943Z,34.38
2023-05-21T17:48:01.645Z,40.50
2023-05-21T17:50:32.118Z,39.83
2023-05-21T17:53:02.262Z,41.70
2023-05-21T17:55:36.352Z,42.03
2023-05-21T17:58:08.753Z,45.08
2023-05-21T18:00:39.792Z,33.95
2023-05-21T18:03:10.707Z,49.00
2023-05-21T18:05:41.864Z,49.30
2023-05-21T18:08:12.125Z,26.40
2023-05-21T18:10:43.080Z,48.95
2023-05-21T18:13:14.382Z,39.85
2023-05-21T18:15:44.865Z,35.92
2023-05-21T18:18:21.611Z,39.63
2023-05-21T18:20:53.272Z,31.90
2023-05-21T18:23:24.260Z,33.17
2023-05-21T18:25:54.720Z,43.97
2023-05-21T18:28:26.604Z,35.03
2023-05-21T18:30:59.061Z,41.72
2023-05-21T18:33:39.997Z,40.88
2023-05-21T18:36:40.159Z,45.85
2023-05-21T18:39:12.599Z,63.80
2023-05-21T18:41:43.666Z,45.70
2023-05-21T18:44:14.874Z,32.60
2023-05-21T18:46:45.855Z,39.63
2023-05-21T18:49:36.545Z,45.15
2023-05-21T18:52:08.461Z,42.83
2023-05-21T18:54:39.611Z,42.50
2023-05-21T18:57:10.981Z,38.13
2023-05-21T18:59:43.514Z,36.97
2023-05-21T19:02:14.067Z,29.75
2023-05-21T19:04:46.956Z,30.75
2023-05-21T19:07:19.372Z,31.85
2023-05-21T19:09:55.463Z,25.48
2023-05-21T19:12:26.519Z,24.85
2023-05-21T19:15:04.262Z,23.25
2023-05-21T19:17:39.056Z,27.30
2023-05-21T19:20:12.761Z,27.08
2023-05-21T19:22:44.016Z,26.83
2023-05-21T19:25:14.512Z,24.30
2023-05-21T19:27:52.058Z,22.17
2023-05-21T19:30:23.464Z,28.67
2023-05-21T19:32:54.766Z,21.88
2023-05-21T19:35:29.586Z,24.30
2023-05-21T19:38:05.270Z,21.08
2023-05-21T19:40:36.863Z,20.92
2023-05-21T19:43:08.625Z,23.98
2023-05-21T19:45:42.303Z,19.98
2023-05-21T19:48:13.700Z,19.10
2023-05-21T19:50:45.050Z,18.25
2023-05-21T19:53:15.571Z,18.10
2023-05-21T19:55:51.275Z,19.83
2023-05-21T19:58:29.656Z,19.48
2023-05-21T20:01:03.651Z,20.05
2023-05-21T20:03:37.854Z,23.27
2023-05-21T20:06:10.832Z,22.80
2023-05-21T20:08:41.393Z,44.70
2023-05-21T20:11:13.724Z,23.73
2023-05-21T20:13:47.299Z,22.30
2023-05-21T20:16:25.220Z,22.75
2023-05-21T20:19:01.839Z,19.92
2023-05-21T20:21:37.407Z,21.10
2023-05-21T20:24:08.412Z,22.00
2023-05-21T20:26:42.921Z,20.08
2023-05-21T20:29:13.651Z,24.17
2023-05-21T20:31:45.312Z,20.60
2023-05-21T20:34:16.292Z,28.25
2023-05-21T20:36:51.054Z,27.88
2023-05-21T20:41:57.893Z,54.90
2023-05-21T20:44:30.558Z,33.03
2023-05-21T20:47:04.143Z,42.45
2023-05-21T20:49:38.839Z,42.30
2023-05-21T20:52:10.830Z,41.92
2023-05-21T20:54:44.842Z,40.92
2023-05-21T20:57:15.520Z,30.98
2023-05-21T20:59:45.925Z,21.05
2023-05-21T21:02:20.808Z,26.88
2023-05-21T21:04:53.068Z,23.02
2023-05-21T21:07:23.796Z,25.60
2023-05-21T21:09:56.924Z,28.48
2023-05-21T21:12:28.213Z,27.83
2023-05-21T21:14:59.425Z,22.17
2023-05-21T21:17:30.714Z,20.25
2023-05-21T21:20:05.303Z,20.73
2023-05-21T21:22:36.149Z,19.30
2023-05-21T21:25:10.082Z,20.90
2023-05-21T21:27:42.489Z,24.50
2023-05-21T21:30:14.551Z,22.77
2023-05-21T21:32:46.258Z,27.13
2023-05-21T21:35:17.807Z,20.80
2023-05-21T21:37:49.101Z,21.58
2023-05-21T21:40:20.261Z,25.92
2023-05-21T21:42:52.257Z,24.95
2023-05-21T21:45:25.438Z,24.98
2023-05-21T21:48:00.625Z,28.20
2023-05-21T21:50:34.008Z,41.38
2023-05-21T21:53:05.567Z,57.75
2023-05-21T21:55:36.174Z,56.42
2023-05-21T21:58:07.954Z,48.67
2023-05-21T22:00:40.220Z,52.55
2023-05-21T22:03:14.444Z,52.80
2023-05-21T22:05:49.490Z,45.42
2023-05-21T22:08:22.793Z,47.38
2023-05-21T22:10:57.309Z,40.63
2023-05-21T22:13:30.649Z,43.35
2023-05-21T22:16:05.881Z,43.72
2023-05-21T22:18:41.198Z,43.38
2023-05-21T22:21:15.559Z,45.25
2023-05-21T22:23:52.116Z,32.10
2023-05-21T22:26:25.209Z,36.47
2023-05-21T22:29:02.540Z,35.60
2023-05-21T22:31:33.869Z,29.48
2023-05-21T22:34:09.542Z,27.60
2023-05-21T22:36:46.797Z,25.33
2023-05-21T22:39:18.112Z,22.52
2023-05-21T22:41:54.268Z,23.27
2023-05-21T22:44:28.237Z,26.52
2023-05-21T22:47:21.342Z,24.85
2023-05-21T22:49:56.513Z,25.25
2023-05-21T22:52:28.927Z,23.92
2023-05-21T22:55:02.329Z,25.48
2023-05-21T22:57:35.264Z,45.83
2023-05-21T23:00:10.390Z,48.22
2023-05-21T23:02:48.215Z,58.38
2023-05-21T23:05:21.953Z,45.65
2023-05-21T23:07:55.196Z,47.05
2023-05-21T23:10:26.963Z,45.85
2023-05-21T23:13:02.283Z,39.50
2023-05-21T23:15:33.963Z,41.80
2023-05-21T23:18:10.531Z,37.10
2023-05-21T23:20:45.253Z,40.35
2023-05-21T23:23:18.096Z,52.95
2023-05-21T23:25:51.994Z,54.13
2023-05-21T23:28:25.065Z,41.75
2023-05-21T23:30:58.339Z,33.58
2023-05-21T23:33:31.894Z,29.85
2023-05-21T23:36:03.964Z,31.13
2023-05-21T23:38:35.956Z,32.88
2023-05-21T23:43:40.480Z,49.38
2023-05-21T23:46:14.905Z,48.95
2023-05-21T23:48:47.622Z,76.65
2023-05-21T23:51:20.633Z,83.90
2023-05-21T23:53:54.034Z,47.53
2023-05-21T23:56:26.184Z,45.13
2023-05-21T23:58:58.504Z,41.50
